createdAt,value
2018-12-02T00:01:10.535Z,30.63
2018-12-02T00:03:40.899Z,29.80
2018-12-02T00:06:11.166Z,29.57
2018-12-02T00:08:41.477Z,30.47
2018-12-02T00:11:11.737Z,28.53
2018-12-02T00:13:42.036Z,30.40
2018-12-02T00:16:12.286Z,27.63
2018-12-02T00:18:42.574Z,29.30
2018-12-02T00:21:12.872Z,27.53
2018-12-02T00:23:43.135Z,27.43
2018-12-02T00:26:13.449Z,29.50
2018-12-02T00:28:43.721Z,29.07
2018-12-02T00:31:14.025Z,29.47
2018-12-02T00:33:44.307Z,29.57
2018-12-02T00:36:14.647Z,32.40
2018-12-02T00:38:44.894Z,29.97
2018-12-02T00:41:15.177Z,29.03
2018-12-02T00:43:45.440Z,29.23
2018-12-02T00:46:15.736Z,29.37
2018-12-02T00:48:46.000Z,29.00
2018-12-02T00:51:16.307Z,30.03
2018-12-02T00:53:46.490Z,29.33
2018-12-02T00:56:15.040Z,30.30
2018-12-02T00:58:45.291Z,27.97
2018-12-02T01:01:15.559Z,30.20
2018-12-02T01:03:45.873Z,27.80
2018-12-02T01:06:16.146Z,30.47
2018-12-02T01:08:46.451Z,31.30
2018-12-02T01:11:16.758Z,28.27
2018-12-02T01:13:47.026Z,29.57
2018-12-02T01:16:17.249Z,30.10
2018-12-02T01:18:47.535Z,29.87
2018-12-02T01:21:17.807Z,31.17
2018-12-02T01:23:48.034Z,33.63
2018-12-02T01:26:18.302Z,30.13
2018-12-02T01:28:48.613Z,30.20
2018-12-02T01:31:18.886Z,30.30
2018-12-02T01:33:49.144Z,32.20
2018-12-02T01:36:19.403Z,29.93
2018-12-02T01:38:49.682Z,32.10
2018-12-02T01:41:19.962Z,30.90
2018-12-02T01:43:50.290Z,31.47
2018-12-02T01:46:20.556Z,31.30
2018-12-02T01:48:51.323Z,30.47
2018-12-02T01:51:21.566Z,31.03
2018-12-02T01:53:51.818Z,29.80
2018-12-02T01:56:22.083Z,29.57
2018-12-02T01:58:53.230Z,31.13
2018-12-02T02:01:23.633Z,32.10
2018-12-02T02:03:54.206Z,29.83
2018-12-02T02:06:24.410Z,33.37
2018-12-02T02:08:54.667Z,30.77
2018-12-02T02:11:24.938Z,32.57
2018-12-02T02:13:55.180Z,31.97
2018-12-02T02:16:25.495Z,32.00
2018-12-02T02:18:55.790Z,29.93
2018-12-02T02:21:26.063Z,32.53
2018-12-02T02:23:56.299Z,33.70
2018-12-02T02:26:26.558Z,33.40
2018-12-02T02:28:56.838Z,34.50
2018-12-02T02:31:27.116Z,35.80
2018-12-02T02:33:57.372Z,34.07
2018-12-02T02:36:27.651Z,33.53
2018-12-02T02:38:57.895Z,34.40
2018-12-02T02:41:28.129Z,34.67
2018-12-02T02:43:58.368Z,32.87
2018-12-02T02:46:28.635Z,32.60
2018-12-02T02:48:58.904Z,33.00
2018-12-02T02:51:29.127Z,34.43
2018-12-02T02:53:59.419Z,33.20
2018-12-02T02:56:29.730Z,33.10
2018-12-02T02:58:59.972Z,32.70
2018-12-02T03:01:30.221Z,32.10
2018-12-02T03:04:00.466Z,33.07
2018-12-02T03:06:30.755Z,32.67
2018-12-02T03:09:00.982Z,32.93
2018-12-02T03:11:31.251Z,34.50
2018-12-02T03:14:01.479Z,32.13
2018-12-02T03:16:31.758Z,35.00
2018-12-02T03:19:02.039Z,36.47
2018-12-02T03:21:32.333Z,33.30
2018-12-02T03:24:02.590Z,32.77
2018-12-02T03:26:32.846Z,32.40
2018-12-02T03:29:03.115Z,32.10
2018-12-02T03:31:33.376Z,33.90
2018-12-02T03:34:03.634Z,33.33
2018-12-02T03:36:33.913Z,32.77
2018-12-02T03:39:04.420Z,35.57
2018-12-02T03:41:34.706Z,35.30
2018-12-02T03:44:05.010Z,34.17
2018-12-02T03:46:35.266Z,31.13
2018-12-02T03:49:05.719Z,34.80
2018-12-02T03:51:35.966Z,33.47
2018-12-02T03:54:06.478Z,34.87
2018-12-02T03:56:36.754Z,32.40
2018-12-02T03:59:07.522Z,33.33
2018-12-02T04:01:37.820Z,33.57
2018-12-02T04:04:08.084Z,32.37
2018-12-02T04:06:38.381Z,34.00
2018-12-02T04:09:10.170Z,33.27
2018-12-02T04:11:40.421Z,34.13
2018-12-02T04:14:10.667Z,34.03
2018-12-02T04:16:40.923Z,34.97
2018-12-02T04:19:11.183Z,32.33
2018-12-02T04:21:41.431Z,33.73
2018-12-02T04:24:11.698Z,33.57
2018-12-02T04:26:42.018Z,33.30
2018-12-02T04:29:12.267Z,34.87
2018-12-02T04:31:42.556Z,35.63
2018-12-02T04:34:12.801Z,33.60
2018-12-02T04:36:43.064Z,33.77
2018-12-02T04:39:13.366Z,33.57
2018-12-02T04:41:43.662Z,34.67
2018-12-02T04:44:13.903Z,32.97
2018-12-02T04:46:44.163Z,33.67
2018-12-02T04:49:14.434Z,32.50
2018-12-02T04:51:44.751Z,31.33
2018-12-02T04:54:15.016Z,31.90
2018-12-02T04:56:45.300Z,31.20
2018-12-02T04:59:15.559Z,34.20
2018-12-02T05:01:45.818Z,36.80
2018-12-02T05:04:16.075Z,35.33
2018-12-02T05:06:46.316Z,33.53
2018-12-02T05:09:16.575Z,32.40
2018-12-02T05:11:46.838Z,32.40
2018-12-02T05:14:17.140Z,34.10
2018-12-02T05:16:47.490Z,32.50
2018-12-02T05:19:17.763Z,32.30
2018-12-02T05:21:48.031Z,30.67
2018-12-02T05:24:18.304Z,32.00
2018-12-02T05:26:48.651Z,31.80
2018-12-02T05:29:18.925Z,32.70
2018-12-02T05:31:49.234Z,32.00
2018-12-02T05:34:19.554Z,33.73
2018-12-02T05:36:49.834Z,32.93
2018-12-02T05:39:20.106Z,32.37
2018-12-02T05:41:55.521Z,30.30
2018-12-02T05:44:25.758Z,32.27
2018-12-02T05:46:56.442Z,33.60
2018-12-02T05:49:26.740Z,34.40
2018-12-02T05:51:57.016Z,31.30
2018-12-02T05:54:27.312Z,32.73
2018-12-02T05:56:57.578Z,32.13
2018-12-02T05:59:27.826Z,31.90
2018-12-02T06:01:58.081Z,31.50
2018-12-02T06:04:28.348Z,30.87
2018-12-02T06:06:58.629Z,30.77
2018-12-02T06:09:28.894Z,29.43
2018-12-02T06:11:59.155Z,29.63
2018-12-02T06:14:29.436Z,30.87
2018-12-02T06:16:59.686Z,30.80
2018-12-02T06:19:29.905Z,31.20
2018-12-02T06:22:00.179Z,29.70
2018-12-02T06:24:30.440Z,32.67
2018-12-02T06:27:00.698Z,28.57
2018-12-02T06:29:30.963Z,29.30
2018-12-02T06:32:01.296Z,27.90
2018-12-02T06:34:31.591Z,28.03
2018-12-02T06:37:01.890Z,32.33
2018-12-02T06:39:32.219Z,28.40
2018-12-02T06:42:02.526Z,26.03
2018-12-02T06:44:32.819Z,27.10
2018-12-02T06:47:03.152Z,27.37
2018-12-02T06:49:33.487Z,27.80
2018-12-02T06:52:03.782Z,29.07
2018-12-02T06:54:39.542Z,30.67
2018-12-02T06:57:14.885Z,30.23
2018-12-02T07:00:01.508Z,29.37
2018-12-02T07:02:45.119Z,28.90
2018-12-02T07:05:23.948Z,29.60
2018-12-02T07:07:54.255Z,28.73
2018-12-02T07:10:24.527Z,30.60
2018-12-02T07:12:54.802Z,30.73
2018-12-02T07:15:25.072Z,28.67
2018-12-02T07:18:00.699Z,27.67
2018-12-02T07:20:33.893Z,29.83
2018-12-02T07:23:08.443Z,29.30
2018-12-02T07:25:45.186Z,29.97
2018-12-02T07:28:15.455Z,30.50
2018-12-02T07:30:45.739Z,29.17
2018-12-02T07:33:15.987Z,29.03
2018-12-02T07:35:46.239Z,32.37
2018-12-02T07:38:31.507Z,32.30
2018-12-02T07:41:02.422Z,50.50
2018-12-02T07:43:32.710Z,35.00
2018-12-02T07:46:02.947Z,30.83
2018-12-02T07:48:33.243Z,33.97
2018-12-02T07:51:03.486Z,30.60
2018-12-02T07:53:33.800Z,28.70
2018-12-02T07:56:04.091Z,30.67
2018-12-02T07:58:34.363Z,30.50
2018-12-02T08:01:04.627Z,28.00
2018-12-02T08:03:34.915Z,28.37
2018-12-02T08:06:05.768Z,27.40
2018-12-02T08:08:36.057Z,30.10
2018-12-02T08:11:06.935Z,30.47
2018-12-02T08:13:37.175Z,30.00
2018-12-02T08:16:07.757Z,30.63
2018-12-02T08:18:38.041Z,30.90
2018-12-02T08:21:08.338Z,30.50
2018-12-02T08:23:38.683Z,29.73
2018-12-02T08:26:08.938Z,26.90
2018-12-02T08:28:39.174Z,30.57
2018-12-02T08:31:09.469Z,28.63
2018-12-02T08:33:39.752Z,29.40
2018-12-02T08:36:10.021Z,29.23
2018-12-02T08:38:40.303Z,27.10
2018-12-02T08:41:10.599Z,30.17
2018-12-02T08:43:41.226Z,27.20
2018-12-02T08:46:11.092Z,52.87
2018-12-02T08:48:41.355Z,33.00
2018-12-02T08:51:11.662Z,29.77
2018-12-02T08:53:41.893Z,29.90
2018-12-02T08:56:12.210Z,30.33
2018-12-02T08:58:42.434Z,28.93
2018-12-02T09:01:12.713Z,28.53
2018-12-02T09:03:42.983Z,28.27
2018-12-02T09:06:13.812Z,26.90
2018-12-02T09:08:44.107Z,27.10
2018-12-02T09:11:14.454Z,25.50
2018-12-02T09:13:44.757Z,25.77
2018-12-02T09:16:15.014Z,25.80
2018-12-02T09:18:45.294Z,25.30
2018-12-02T09:21:15.534Z,25.03
2018-12-02T09:23:47.510Z,23.90
2018-12-02T09:26:16.106Z,26.00
2018-12-02T09:28:46.377Z,25.30
2018-12-02T09:31:16.725Z,20.73
2018-12-02T09:33:46.902Z,27.07
2018-12-02T09:36:17.140Z,31.43
2018-12-02T09:38:47.406Z,24.77
2018-12-02T09:41:17.700Z,21.93
2018-12-02T09:43:47.960Z,20.87
2018-12-02T09:46:18.232Z,20.53
2018-12-02T09:48:48.506Z,22.53
2018-12-02T09:51:18.789Z,22.63
2018-12-02T09:53:49.070Z,21.07
2018-12-02T09:56:19.351Z,19.17
2018-12-02T09:58:49.623Z,21.37
2018-12-02T10:01:19.891Z,21.97
2018-12-02T10:03:50.186Z,20.93
2018-12-02T10:06:20.546Z,19.23
2018-12-02T10:08:50.838Z,25.40
2018-12-02T10:11:21.128Z,44.43
2018-12-02T10:13:51.413Z,24.50
2018-12-02T10:16:21.703Z,20.47
2018-12-02T10:18:51.946Z,18.47
2018-12-02T10:21:22.230Z,20.83
2018-12-02T10:23:52.514Z,17.87
2018-12-02T10:26:22.800Z,18.70
2018-12-02T10:28:53.320Z,18.67
2018-12-02T10:31:23.594Z,18.47
2018-12-02T10:33:53.908Z,18.60
2018-12-02T10:36:24.139Z,19.07
2018-12-02T10:38:54.387Z,18.50
2018-12-02T10:41:24.699Z,17.57
2018-12-02T10:43:55.035Z,19.90
2018-12-02T10:46:25.287Z,19.17
2018-12-02T10:48:55.546Z,21.60
2018-12-02T10:51:25.902Z,19.57
2018-12-02T10:53:56.179Z,18.80
2018-12-02T10:56:26.451Z,19.60
2018-12-02T10:58:56.688Z,19.90
2018-12-02T11:01:32.008Z,19.67
2018-12-02T11:04:02.343Z,23.00
2018-12-02T11:06:32.652Z,27.67
2018-12-02T11:09:03.004Z,26.50
2018-12-02T11:11:33.338Z,25.50
2018-12-02T11:14:03.587Z,24.23
2018-12-02T11:16:33.909Z,19.17
2018-12-02T11:19:04.183Z,19.50
2018-12-02T11:21:34.455Z,18.57
2018-12-02T11:24:04.803Z,18.60
2018-12-02T11:26:35.103Z,17.37
2018-12-02T11:29:05.547Z,15.60
2018-12-02T11:31:35.834Z,17.80
2018-12-02T11:34:06.437Z,15.93
2018-12-02T11:36:36.771Z,18.17
2018-12-02T11:39:10.171Z,16.23
2018-12-02T11:41:40.378Z,18.03
2018-12-02T11:44:10.626Z,17.33
2018-12-02T11:46:40.920Z,15.50
2018-12-02T11:49:11.155Z,29.07
2018-12-02T11:51:41.436Z,21.80
2018-12-02T11:54:11.737Z,16.00
2018-12-02T11:56:42.017Z,17.73
2018-12-02T11:59:12.291Z,18.70
2018-12-02T12:01:42.601Z,19.37
2018-12-02T12:04:12.839Z,18.10
2018-12-02T12:06:43.124Z,21.33
2018-12-02T12:09:13.422Z,18.67
2018-12-02T12:11:43.811Z,19.03
2018-12-02T12:14:14.162Z,18.60
2018-12-02T12:16:44.446Z,19.37
2018-12-02T12:19:14.756Z,19.50
2018-12-02T12:21:45.066Z,18.30
2018-12-02T12:24:15.395Z,20.57
2018-12-02T12:26:45.651Z,22.50
2018-12-02T12:29:15.914Z,20.67
2018-12-02T12:31:46.179Z,20.40
2018-12-02T12:34:16.452Z,20.60
2018-12-02T12:36:46.752Z,22.10
2018-12-02T12:39:17.050Z,20.50
2018-12-02T12:41:47.343Z,22.50
2018-12-02T12:44:17.630Z,21.20
2018-12-02T12:46:47.841Z,21.10
2018-12-02T12:49:18.162Z,28.40
2018-12-02T12:51:48.435Z,33.43
2018-12-02T12:54:18.823Z,22.80
2018-12-02T12:56:49.154Z,24.77
2018-12-02T12:59:19.406Z,22.40
2018-12-02T13:01:49.691Z,22.90
2018-12-02T13:04:19.927Z,22.87
2018-12-02T13:06:50.279Z,28.93
2018-12-02T13:09:20.573Z,28.00
2018-12-02T13:11:50.871Z,24.33
2018-12-02T13:14:21.262Z,22.23
2018-12-02T13:16:51.656Z,22.00
2018-12-02T13:19:21.926Z,23.20
2018-12-02T13:21:52.276Z,21.53
2018-12-02T13:24:22.500Z,22.63
2018-12-02T13:26:52.726Z,21.07
2018-12-02T13:29:23.031Z,20.40
2018-12-02T13:31:53.278Z,19.93
2018-12-02T13:34:23.565Z,20.03
2018-12-02T13:36:53.843Z,21.00
2018-12-02T13:39:24.115Z,21.53
2018-12-02T13:41:54.402Z,21.17
2018-12-02T13:44:24.726Z,19.70
2018-12-02T13:46:55.325Z,20.83
2018-12-02T13:49:25.596Z,20.70
2018-12-02T13:51:55.966Z,23.43
2018-12-02T13:54:31.608Z,25.43
2018-12-02T13:57:01.913Z,25.10
2018-12-02T13:59:32.267Z,25.50
2018-12-02T14:02:02.568Z,23.20
2018-12-02T14:04:32.926Z,23.60
2018-12-02T14:07:03.274Z,23.73
2018-12-02T14:09:33.658Z,25.07
2018-12-02T14:12:04.106Z,24.47
2018-12-02T14:14:38.741Z,23.80
2018-12-02T14:17:14.387Z,24.73
2018-12-02T14:19:47.133Z,25.80
2018-12-02T14:22:17.446Z,27.07
2018-12-02T14:24:47.768Z,24.17
2018-12-02T14:27:18.052Z,23.77
2018-12-02T14:29:51.496Z,23.47
2018-12-02T14:32:23.519Z,24.23
2018-12-02T14:34:53.879Z,27.10
2018-12-02T14:37:24.248Z,53.00
2018-12-02T14:39:54.606Z,26.27
2018-12-02T14:42:25.001Z,23.80
2018-12-02T14:44:55.375Z,25.47
2018-12-02T14:47:25.672Z,23.97
2018-12-02T14:49:56.045Z,22.50
2018-12-02T14:52:26.421Z,23.67
2018-12-02T14:54:56.784Z,24.93
2018-12-02T14:57:27.123Z,25.20
2018-12-02T14:59:57.386Z,23.60
2018-12-02T15:02:27.679Z,24.93
2018-12-02T15:04:57.991Z,24.20
2018-12-02T15:07:28.335Z,26.00
2018-12-02T15:09:58.636Z,31.90
2018-12-02T15:12:29.007Z,51.17
2018-12-02T15:14:59.309Z,32.77
2018-12-02T15:17:29.654Z,25.80
2018-12-02T15:19:59.971Z,26.70
2018-12-02T15:22:30.248Z,23.87
2018-12-02T15:25:00.697Z,25.30
2018-12-02T15:27:31.000Z,26.70
2018-12-02T15:30:01.347Z,27.53
2018-12-02T15:32:31.625Z,27.07
2018-12-02T15:35:01.965Z,25.67
2018-12-02T15:37:32.287Z,25.10
2018-12-02T15:40:02.610Z,26.50
2018-12-02T15:42:33.017Z,26.23
2018-12-02T15:45:03.381Z,28.43
2018-12-02T15:47:33.737Z,27.60
2018-12-02T15:50:04.101Z,27.93
2018-12-02T15:52:34.546Z,26.27
2018-12-02T15:55:05.202Z,25.93
2018-12-02T15:57:35.528Z,27.40
2018-12-02T16:00:24.071Z,27.43
2018-12-02T16:02:54.459Z,55.80
2018-12-02T16:05:24.885Z,31.10
2018-12-02T16:07:55.252Z,27.07
2018-12-02T16:10:25.635Z,25.67
2018-12-02T16:12:56.032Z,26.27
2018-12-02T16:15:32.674Z,26.20
2018-12-02T16:18:03.259Z,30.30
2018-12-02T16:20:57.199Z,27.80
2018-12-02T16:23:28.269Z,29.03
2018-12-02T16:25:58.635Z,28.90
2018-12-02T16:28:28.937Z,27.07
2018-12-02T16:30:59.907Z,29.57
2018-12-02T16:33:30.210Z,27.50
2018-12-02T16:36:00.557Z,26.77
2018-12-02T16:38:31.949Z,28.27
2018-12-02T16:41:02.311Z,29.77
2018-12-02T16:43:32.666Z,30.17
2018-12-02T16:46:02.983Z,29.90
2018-12-02T16:48:33.280Z,28.77
2018-12-02T16:51:03.749Z,28.43
2018-12-02T16:53:34.083Z,26.87
2018-12-02T16:56:08.383Z,29.97
2018-12-02T16:59:12.268Z,28.10
2018-12-02T17:01:45.953Z,27.30
2018-12-02T17:04:16.582Z,30.73
2018-12-02T17:06:47.155Z,28.60
2018-12-02T17:09:17.447Z,29.57
2018-12-02T17:11:47.755Z,28.20
2018-12-02T17:14:18.074Z,46.77
2018-12-02T17:16:48.392Z,40.33
2018-12-02T17:19:18.771Z,27.70
2018-12-02T17:21:49.120Z,34.40
2018-12-02T17:24:19.507Z,32.63
2018-12-02T17:26:49.891Z,27.80
2018-12-02T17:29:21.669Z,30.33
2018-12-02T17:32:10.071Z,28.50
2018-12-02T17:34:40.580Z,27.10
2018-12-02T17:37:11.043Z,28.23
2018-12-02T17:39:47.056Z,27.70
2018-12-02T17:42:17.501Z,27.33
2018-12-02T17:44:47.841Z,27.90
2018-12-02T17:47:18.156Z,26.33
2018-12-02T17:49:49.383Z,36.60
2018-12-02T17:52:19.678Z,34.23
2018-12-02T17:54:49.972Z,27.23
2018-12-02T17:57:20.946Z,30.63
2018-12-02T17:59:51.392Z,29.60
2018-12-02T18:02:21.758Z,32.07
2018-12-02T18:04:52.221Z,28.67
2018-12-02T18:07:22.516Z,29.60
2018-12-02T18:09:52.860Z,29.43
2018-12-02T18:12:23.272Z,29.40
2018-12-02T18:14:53.736Z,29.90
2018-12-02T18:17:24.075Z,26.50
2018-12-02T18:19:54.439Z,29.67
2018-12-02T18:22:24.841Z,30.30
2018-12-02T18:24:55.234Z,32.70
2018-12-02T18:27:25.610Z,27.63
2018-12-02T18:29:55.926Z,30.20
2018-12-02T18:32:26.324Z,30.27
2018-12-02T18:34:56.693Z,28.60
2018-12-02T18:37:28.197Z,30.43
2018-12-02T18:39:58.551Z,31.63
2018-12-02T18:42:29.187Z,29.87
2018-12-02T18:44:59.525Z,30.87
2018-12-02T18:47:30.129Z,28.60
2018-12-02T18:50:00.560Z,27.90
2018-12-02T18:52:31.446Z,30.07
2018-12-02T18:55:01.844Z,31.80
2018-12-02T18:57:32.821Z,31.30
2018-12-02T19:00:03.432Z,30.73
2018-12-02T19:02:33.749Z,29.03
2018-12-02T19:05:04.169Z,29.80
2018-12-02T19:07:34.505Z,30.60
2018-12-02T19:10:06.260Z,31.77
2018-12-02T19:12:36.668Z,31.37
2018-12-02T19:15:13.407Z,31.17
2018-12-02T19:17:44.654Z,28.63
2018-12-02T19:20:31.891Z,31.10
2018-12-02T19:23:06.723Z,30.47
2018-12-02T19:25:37.987Z,29.80
2018-12-02T19:28:10.723Z,29.50
2018-12-02T19:30:41.392Z,32.47
2018-12-02T19:33:15.294Z,30.63
2018-12-02T19:35:45.687Z,31.97
2018-12-02T19:38:24.007Z,31.43
2018-12-02T19:40:54.541Z,31.67
2018-12-02T19:43:24.959Z,30.97
2018-12-02T19:45:55.368Z,29.07
2018-12-02T19:48:25.770Z,30.97
2018-12-02T19:50:57.866Z,31.77
2018-12-02T19:53:28.299Z,30.03
2018-12-02T19:55:58.657Z,31.20
2018-12-02T19:58:30.074Z,30.67
2018-12-02T20:01:01.097Z,32.23
2018-12-02T20:03:31.483Z,32.93
2018-12-02T20:06:01.814Z,33.67
2018-12-02T20:08:32.260Z,32.03
2018-12-02T20:11:02.672Z,30.97
2018-12-02T20:13:33.032Z,33.83
2018-12-02T20:16:08.447Z,33.20
2018-12-02T20:18:38.767Z,32.93
2018-12-02T20:21:09.819Z,32.67
2018-12-02T20:23:45.458Z,32.10
2018-12-02T20:26:15.687Z,30.10
2018-12-02T20:28:49.560Z,28.57
2018-12-02T20:31:22.937Z,29.27
2018-12-02T20:33:53.284Z,29.80
2018-12-02T20:36:23.669Z,33.10
2018-12-02T20:38:54.032Z,32.30
2018-12-02T20:41:24.466Z,32.20
2018-12-02T20:43:54.781Z,33.00
2018-12-02T20:46:25.065Z,32.50
2018-12-02T20:48:55.413Z,33.93
2018-12-02T20:51:25.775Z,36.47
2018-12-02T20:53:56.191Z,37.80
2018-12-02T20:56:26.530Z,36.93
2018-12-02T20:58:56.861Z,33.77
2018-12-02T21:01:27.272Z,33.07
2018-12-02T21:03:59.034Z,32.67
2018-12-02T21:06:29.334Z,33.77
2018-12-02T21:08:59.637Z,34.10
2018-12-02T21:11:30.031Z,35.10
2018-12-02T21:14:00.480Z,34.93
2018-12-02T21:16:30.877Z,35.20
2018-12-02T21:19:01.220Z,35.03
2018-12-02T21:21:36.916Z,33.70
2018-12-02T21:24:02.074Z,32.57
2018-12-02T21:26:32.369Z,35.20
2018-12-02T21:29:02.732Z,31.67
2018-12-02T21:31:33.137Z,36.67
2018-12-02T21:34:03.445Z,36.53
2018-12-02T21:36:33.766Z,35.00
2018-12-02T21:39:04.686Z,34.27
2018-12-02T21:41:34.970Z,33.83
2018-12-02T21:44:05.368Z,34.00
2018-12-02T21:46:35.675Z,35.27
2018-12-02T21:49:06.644Z,35.63
2018-12-02T21:51:36.966Z,35.07
2018-12-02T21:54:07.572Z,34.03
2018-12-02T21:56:37.871Z,36.77
2018-12-02T21:59:08.334Z,37.93
2018-12-02T22:01:38.659Z,36.80
2018-12-02T22:04:08.987Z,35.73
2018-12-02T22:06:39.368Z,37.33
2018-12-02T22:09:09.907Z,34.50
2018-12-02T22:11:40.300Z,35.83
2018-12-02T22:14:10.701Z,35.43
2018-12-02T22:16:41.041Z,37.40
2018-12-02T22:19:11.356Z,37.60
2018-12-02T22:21:41.638Z,38.60
2018-12-02T22:24:11.983Z,37.53
2018-12-02T22:26:42.371Z,40.23
2018-12-02T22:29:12.679Z,37.30
2018-12-02T22:31:43.008Z,37.93
2018-12-02T22:34:13.291Z,37.97
2018-12-02T22:36:43.613Z,41.17
2018-12-02T22:39:13.922Z,37.00
2018-12-02T22:41:44.237Z,39.20
2018-12-02T22:44:14.556Z,39.63
2018-12-02T22:46:44.922Z,39.83
2018-12-02T22:49:15.215Z,41.67
2018-12-02T22:51:45.482Z,39.83
2018-12-02T22:54:15.821Z,41.67
2018-12-02T22:56:46.160Z,42.20
2018-12-02T22:59:16.496Z,41.20
2018-12-02T23:01:52.525Z,41.73
2018-12-02T23:04:22.913Z,44.00
2018-12-02T23:06:53.275Z,43.63
2018-12-02T23:09:23.690Z,44.00
2018-12-02T23:11:54.428Z,42.80
2018-12-02T23:14:24.925Z,41.23
2018-12-02T23:17:27.332Z,41.10
2018-12-02T23:19:57.746Z,41.73
2018-12-02T23:22:28.130Z,38.90
2018-12-02T23:24:58.583Z,40.90
2018-12-02T23:27:28.888Z,38.90
2018-12-02T23:29:59.238Z,40.90
2018-12-02T23:32:29.646Z,40.37
2018-12-02T23:35:00.033Z,42.03
2018-12-02T23:37:30.411Z,41.67
2018-12-02T23:40:00.831Z,38.93
2018-12-02T23:42:31.596Z,39.77
2018-12-02T23:45:02.122Z,39.20
2018-12-02T23:47:32.426Z,38.57
2018-12-02T23:50:02.832Z,41.33
2018-12-02T23:52:33.201Z,41.30
2018-12-02T23:55:03.642Z,41.17
2018-12-02T23:57:34.002Z,41.20
